Time;durP1;ratioP1;P1;durP2;ratioP2;P2;SDS_P1;SDS_P2;PMS_P1;PMS_P2;Temp;Humidity;BMP_temperature;BMP_pressure;BME280_temperature;BME280_humidity;BME280_pressure;Samples;Min_cycle;Max_cycle;Signal;HPM_P1;HPM_P2
2020/12/28 17:42:07;;;;;;;11.30;8.80;;;1.80;99.90;;;;;;5108871;27;20286;-70
2020/12/28 17:44:35;;;;;;;16.77;11.80;;;1.70;99.90;;;;;;5108009;28;20183;-70
2020/12/28 17:47:00;;;;;;;14.63;10.33;;;1.70;99.90;;;;;;5105310;28;20636;-70
2020/12/28 17:49:26;;;;;;;13.20;10.00;;;1.70;99.90;;;;;;5075080;28;20172;-71
2020/12/28 17:51:51;;;;;;;13.80;11.20;;;1.70;99.90;;;;;;5071587;28;20291;-70
2020/12/28 17:54:17;;;;;;;16.60;10.43;;;1.70;99.90;;;;;;5107574;22;20570;-74
2020/12/28 17:56:42;;;;;;;12.73;9.43;;;1.70;99.90;;;;;;5091866;28;20173;-71
2020/12/28 17:59:08;;;;;;;14.97;10.90;;;1.70;99.90;;;;;;5090774;28;20678;-69
2020/12/28 18:01:34;;;;;;;13.07;10.93;;;1.70;99.90;;;;;;5090238;28;20203;-71
2020/12/28 18:04:00;;;;;;;14.87;11.80;;;1.70;99.90;;;;;;5105659;28;20230;-70
2020/12/28 18:06:25;;;;;;;13.97;10.53;;;1.70;99.90;;;;;;5102252;28;20215;-70
2020/12/28 18:08:51;;;;;;;12.57;10.07;;;1.70;99.90;;;;;;5104718;28;20196;-69
2020/12/28 18:11:16;;;;;;;12.93;9.97;;;1.70;99.90;;;;;;5113559;28;20229;-69
2020/12/28 18:13:43;;;;;;;11.83;10.43;;;1.70;99.90;;;;;;5109763;28;20196;-69
2020/12/28 18:16:10;;;;;;;12.03;8.97;;;1.80;99.90;;;;;;5093587;28;20218;-70
2020/12/28 18:18:37;;;;;;;14.20;10.53;;;1.80;99.90;;;;;;5112265;28;20710;-70
2020/12/28 18:21:02;;;;;;;15.27;11.77;;;1.80;99.90;;;;;;5120868;28;20199;-70
2020/12/28 18:23:28;;;;;;;16.07;11.13;;;1.80;99.90;;;;;;5134357;28;20206;-70
2020/12/28 18:25:53;;;;;;;15.43;11.50;;;1.70;99.90;;;;;;5129520;28;20581;-70
2020/12/28 18:28:19;;;;;;;14.37;10.17;;;1.80;99.90;;;;;;5109351;28;20606;-68
2020/12/28 18:30:44;;;;;;;14.07;10.37;;;1.80;99.90;;;;;;5111046;28;20183;-68
2020/12/28 18:33:10;;;;;;;16.27;11.37;;;1.80;99.90;;;;;;5107798;28;20204;-62
2020/12/28 18:35:35;;;;;;;14.73;11.03;;;1.80;99.90;;;;;;5096636;28;20188;-58
2020/12/28 18:38:01;;;;;;;12.43;9.80;;;1.80;99.90;;;;;;5104565;28;20182;-57
2020/12/28 18:40:27;;;;;;;15.03;11.17;;;1.80;99.90;;;;;;5102763;28;20192;-55
2020/12/28 18:42:52;;;;;;;11.10;8.83;;;1.80;99.90;;;;;;5085594;28;20676;-57
2020/12/28 18:45:18;;;;;;;12.17;9.13;;;1.90;99.90;;;;;;5093845;28;20168;-58
2020/12/28 18:47:44;;;;;;;11.47;7.93;;;1.90;99.90;;;;;;5115787;27;20187;-58
2020/12/28 18:50:09;;;;;;;12.27;9.70;;;1.90;99.90;;;;;;5101990;28;20229;-58
2020/12/28 18:52:35;;;;;;;12.10;8.90;;;1.90;99.90;;;;;;5079450;28;20553;-57
2020/12/28 18:55:00;;;;;;;10.80;9.10;;;1.90;99.90;;;;;;5079900;28;20258;-58
2020/12/28 18:57:26;;;;;;;12.13;9.97;;;1.90;99.90;;;;;;5084605;28;20191;-57
2020/12/28 18:59:51;;;;;;;13.23;9.93;;;1.90;99.90;;;;;;5088092;28;20290;-68
2020/12/28 19:02:17;;;;;;;14.17;10.00;;;1.90;99.90;;;;;;5094862;28;20184;-62
2020/12/28 19:04:42;;;;;;;13.60;9.67;;;1.90;99.90;;;;;;5086476;28;20191;-60
2020/12/28 19:07:09;;;;;;;12.77;10.03;;;1.90;99.90;;;;;;5080165;28;20238;-68
2020/12/28 19:09:35;;;;;;;13.13;9.77;;;1.90;99.90;;;;;;5078945;28;20167;-68
2020/12/28 19:12:02;;;;;;;13.23;9.97;;;1.90;99.90;;;;;;5083509;28;20176;-67
2020/12/28 19:14:31;;;;;;;16.00;11.40;;;1.90;99.90;;;;;;5097739;28;20200;-67
2020/12/28 19:16:57;;;;;;;13.80;10.40;;;1.90;99.90;;;;;;5093648;28;20184;-59
2020/12/28 19:19:22;;;;;;;15.57;10.73;;;1.90;99.90;;;;;;5086606;28;20183;-57
2020/12/28 19:21:48;;;;;;;9.40;6.80;;;1.90;99.90;;;;;;5090056;28;20219;-58
2020/12/28 19:24:14;;;;;;;12.67;9.17;;;1.90;99.90;;;;;;5093736;28;20575;-57
2020/12/28 19:26:47;;;;;;;10.37;7.60;;;1.90;99.90;;;;;;5087725;28;20181;-59
2020/12/28 19:29:12;;;;;;;13.13;9.00;;;1.90;99.90;;;;;;5091075;28;20214;-57
2020/12/28 19:31:38;;;;;;;11.70;9.53;;;1.90;99.90;;;;;;5091911;28;20172;-58
2020/12/28 19:34:03;;;;;;;12.23;9.43;;;1.90;99.90;;;;;;5085130;28;20193;-57
2020/12/28 19:36:29;;;;;;;13.30;9.53;;;1.90;99.90;;;;;;5085389;28;20195;-57
2020/12/28 19:38:54;;;;;;;9.70;7.90;;;1.80;99.90;;;;;;5087730;28;20560;-58
2020/12/28 19:41:20;;;;;;;12.53;9.83;;;1.90;99.90;;;;;;5091241;28;20204;-60
2020/12/28 19:43:45;;;;;;;11.83;10.23;;;1.90;99.90;;;;;;5087623;28;20644;-61
2020/12/28 19:46:11;;;;;;;13.97;10.03;;;1.90;99.90;;;;;;5084504;28;20173;-58
2020/12/28 19:48:38;;;;;;;11.30;8.40;;;1.90;99.90;;;;;;5074453;28;20547;-58
2020/12/28 19:51:05;;;;;;;11.10;8.77;;;1.90;99.90;;;;;;5079367;28;20172;-57
2020/12/28 19:53:30;;;;;;;13.33;10.27;;;1.90;99.90;;;;;;5093662;28;20227;-58
2020/12/28 19:55:56;;;;;;;15.60;10.97;;;1.90;99.90;;;;;;5093059;28;20185;-57
2020/12/28 19:58:22;;;;;;;13.23;10.73;;;1.90;99.90;;;;;;5092921;28;20281;-58
2020/12/28 20:00:48;;;;;;;12.13;10.47;;;1.90;99.90;;;;;;5092488;28;20200;-56
2020/12/28 20:03:13;;;;;;;12.43;10.23;;;2.00;99.90;;;;;;5077878;28;20322;-57
2020/12/28 20:05:38;;;;;;;16.60;10.67;;;2.00;99.90;;;;;;5073894;28;20169;-56
2020/12/28 20:08:04;;;;;;;13.23;10.03;;;2.00;99.90;;;;;;5093908;28;20169;-57
2020/12/28 20:10:29;;;;;;;13.90;10.10;;;2.00;99.90;;;;;;5091892;28;20731;-58
2020/12/28 20:12:55;;;;;;;14.37;10.80;;;2.00;99.90;;;;;;5084963;28;20212;-56
2020/12/28 20:15:20;;;;;;;12.70;10.63;;;2.00;99.90;;;;;;5082240;28;20633;-57
2020/12/28 20:17:46;;;;;;;13.40;10.67;;;2.10;99.90;;;;;;5091014;28;20656;-59
2020/12/28 20:20:12;;;;;;;12.57;10.00;;;2.10;99.90;;;;;;5088293;28;20208;-60
2020/12/28 20:22:37;;;;;;;12.37;10.13;;;2.10;99.90;;;;;;5080810;28;20226;-60
2020/12/28 20:25:06;;;;;;;10.70;8.33;;;2.10;99.90;;;;;;5086469;28;20203;-60
2020/12/28 20:27:36;;;;;;;13.07;9.80;;;2.10;99.90;;;;;;5085846;28;20207;-59
2020/12/28 20:30:06;;;;;;;13.90;10.57;;;2.10;99.90;;;;;;5071453;28;20207;-60
2020/12/28 20:32:32;;;;;;;12.77;9.77;;;2.10;99.90;;;;;;5071629;28;20165;-67
2020/12/28 20:34:57;;;;;;;11.87;10.57;;;2.10;99.90;;;;;;5090611;28;20195;-59
2020/12/28 20:37:23;;;;;;;14.50;10.43;;;2.10;99.90;;;;;;5091386;28;20183;-61
2020/12/28 20:39:48;;;;;;;14.10;10.67;;;2.10;99.90;;;;;;5090457;28;20168;-58
2020/12/28 20:42:14;;;;;;;11.23;9.57;;;2.10;99.90;;;;;;5090690;28;20178;-59
2020/12/28 20:44:40;;;;;;;14.60;10.37;;;2.10;99.90;;;;;;5089185;28;20217;-60
2020/12/28 20:47:05;;;;;;;12.60;9.70;;;2.10;99.90;;;;;;5091341;28;20656;-58
2020/12/28 20:49:31;;;;;;;13.77;10.57;;;2.10;99.90;;;;;;5087533;28;20272;-60
2020/12/28 20:51:56;;;;;;;12.67;10.80;;;2.10;99.90;;;;;;5089528;28;20197;-60
2020/12/28 20:54:22;;;;;;;15.80;10.70;;;2.10;99.90;;;;;;5090182;28;20236;-58
2020/12/28 20:56:47;;;;;;;12.63;10.50;;;2.10;99.90;;;;;;5090729;28;20435;-58
2020/12/28 20:59:13;;;;;;;13.57;11.03;;;2.10;99.90;;;;;;5090929;28;20172;-61
2020/12/28 21:01:38;;;;;;;13.37;10.57;;;2.10;99.90;;;;;;5088535;28;20288;-60
2020/12/28 21:04:04;;;;;;;13.33;10.17;;;2.10;99.90;;;;;;5090630;28;20691;-59
2020/12/28 21:06:29;;;;;;;14.27;10.70;;;2.10;99.90;;;;;;5091037;28;20168;-62
2020/12/28 21:08:55;;;;;;;14.00;11.00;;;2.10;99.90;;;;;;5088790;28;20245;-62
2020/12/28 21:11:20;;;;;;;13.57;9.80;;;2.10;99.90;;;;;;5088700;28;20339;-61
2020/12/28 21:13:46;;;;;;;14.03;10.57;;;2.10;99.90;;;;;;5100341;28;20195;-59
2020/12/28 21:16:11;;;;;;;13.00;10.67;;;2.10;99.90;;;;;;5094619;28;20271;-59
2020/12/28 21:18:37;;;;;;;14.17;11.23;;;2.10;99.90;;;;;;5089787;28;20208;-62
2020/12/28 21:21:03;;;;;;;14.40;10.57;;;2.10;99.90;;;;;;5074822;28;20196;-58
2020/12/28 21:23:30;;;;;;;14.53;10.20;;;2.10;99.90;;;;;;5077145;28;20192;-61
2020/12/28 21:25:55;;;;;;;14.57;11.87;;;2.10;99.90;;;;;;5090107;28;20180;-60
2020/12/28 21:28:21;;;;;;;12.17;10.23;;;2.10;99.90;;;;;;5090063;28;20642;-60
2020/12/28 21:30:46;;;;;;;13.60;10.50;;;2.20;99.90;;;;;;5088987;28;20551;-58
2020/12/28 21:33:12;;;;;;;12.87;10.83;;;2.10;99.90;;;;;;5089001;28;20432;-68
2020/12/28 21:35:37;;;;;;;13.70;11.07;;;2.20;99.90;;;;;;5089587;28;20267;-61
2020/12/28 21:38:03;;;;;;;12.80;10.33;;;2.20;99.90;;;;;;5089742;28;20691;-64
2020/12/28 21:40:28;;;;;;;14.37;12.10;;;2.30;99.90;;;;;;5092683;28;20196;-58
2020/12/28 21:42:53;;;;;;;16.40;11.60;;;2.30;99.90;;;;;;5089156;28;20691;-57
2020/12/28 21:45:19;;;;;;;13.90;11.50;;;2.40;99.90;;;;;;5088711;28;20593;-59
2020/12/28 21:47:45;;;;;;;16.37;10.20;;;2.40;99.90;;;;;;5090208;28;20180;-59
2020/12/28 21:50:10;;;;;;;16.23;11.43;;;2.40;99.90;;;;;;5090040;28;20531;-58
2020/12/28 21:52:36;;;;;;;17.33;13.00;;;2.40;99.90;;;;;;5089552;28;20168;-58
2020/12/28 21:55:01;;;;;;;15.37;12.33;;;2.30;99.90;;;;;;5089459;28;20230;-58
2020/12/28 21:57:27;;;;;;;17.67;10.63;;;2.40;99.90;;;;;;5089683;28;20176;-59
2020/12/28 21:59:52;;;;;;;12.70;10.30;;;2.30;99.90;;;;;;5089033;28;20192;-57
2020/12/28 22:02:35;;;;;;;16.50;10.70;;;2.30;99.90;;;;;;5088838;28;20196;-59
2020/12/28 22:05:05;;;;;;;15.37;10.63;;;2.30;99.90;;;;;;5082119;28;20188;-68
2020/12/28 22:07:33;;;;;;;15.97;12.03;;;2.30;99.90;;;;;;5089460;28;20180;-70
2020/12/28 22:10:00;;;;;;;16.40;11.50;;;2.30;99.90;;;;;;5094417;28;20185;-71
2020/12/28 22:12:25;;;;;;;14.43;10.70;;;2.30;99.90;;;;;;5092884;28;20604;-71
2020/12/28 22:14:52;;;;;;;14.50;11.60;;;2.30;99.90;;;;;;5094684;28;20291;-71
2020/12/28 22:17:18;;;;;;;15.50;11.80;;;2.30;99.90;;;;;;5076680;28;20184;-72
2020/12/28 22:19:45;;;;;;;16.10;11.80;;;2.30;99.90;;;;;;5092236;28;20184;-71
2020/12/28 22:22:11;;;;;;;14.63;11.30;;;2.30;99.90;;;;;;5091292;28;20636;-71
2020/12/28 22:24:36;;;;;;;15.17;11.90;;;2.40;99.90;;;;;;5093943;28;20196;-71
2020/12/28 22:27:02;;;;;;;15.67;11.87;;;2.40;99.90;;;;;;5093450;28;20203;-72
2020/12/28 22:29:27;;;;;;;15.30;11.87;;;2.40;99.90;;;;;;5098351;28;20251;-70
2020/12/28 22:31:56;;;;;;;17.07;12.50;;;2.40;99.90;;;;;;5096956;28;20177;-70
2020/12/28 22:34:23;;;;;;;16.33;11.67;;;2.40;99.90;;;;;;5097154;28;20204;-70
2020/12/28 22:36:50;;;;;;;16.30;11.80;;;2.40;99.90;;;;;;5098482;28;20177;-69
2020/12/28 22:39:16;;;;;;;16.93;12.10;;;2.40;99.90;;;;;;5097459;28;20215;-70
2020/12/28 22:41:41;;;;;;;16.87;12.07;;;2.40;99.90;;;;;;5097418;28;20192;-70
2020/12/28 22:44:07;;;;;;;17.97;12.30;;;2.50;99.90;;;;;;5097969;28;20200;-70
2020/12/28 22:46:32;;;;;;;17.00;12.50;;;2.50;99.90;;;;;;5097897;28;20648;-70
2020/12/28 22:48:58;;;;;;;16.40;12.40;;;2.40;99.90;;;;;;5097344;28;20184;-71
2020/12/28 22:51:23;;;;;;;21.20;12.77;;;2.50;99.90;;;;;;5097447;28;20200;-70
2020/12/28 22:53:49;;;;;;;14.70;10.33;;;2.40;99.90;;;;;;5097559;28;20235;-71
2020/12/28 22:56:14;;;;;;;15.33;11.87;;;2.50;99.90;;;;;;5098250;28;20187;-71
2020/12/28 22:58:39;;;;;;;17.63;13.43;;;2.50;99.90;;;;;;5096867;28;20194;-71
2020/12/28 23:01:05;;;;;;;19.03;12.70;;;2.50;99.90;;;;;;5096347;28;20282;-70
2020/12/28 23:03:30;;;;;;;19.03;13.30;;;2.50;99.90;;;;;;5097816;28;20203;-71
2020/12/28 23:05:56;;;;;;;16.23;11.40;;;2.60;99.90;;;;;;5097091;28;20632;-70
2020/12/28 23:08:22;;;;;;;16.33;12.83;;;2.50;99.90;;;;;;5094015;28;20331;-72
2020/12/28 23:10:47;;;;;;;17.07;11.87;;;2.50;99.90;;;;;;5091701;28;20184;-65
2020/12/28 23:13:13;;;;;;;17.57;12.20;;;2.50;99.90;;;;;;5091479;28;20576;-73
2020/12/28 23:15:39;;;;;;;18.87;13.30;;;2.50;99.90;;;;;;5090267;28;20184;-66
2020/12/28 23:18:05;;;;;;;18.07;13.03;;;2.50;99.90;;;;;;5093307;28;20187;-70
2020/12/28 23:20:31;;;;;;;17.67;12.23;;;2.50;99.90;;;;;;5090328;28;20238;-71
2020/12/28 23:22:57;;;;;;;16.07;11.40;;;2.50;99.90;;;;;;5092324;28;20196;-71
2020/12/28 23:25:24;;;;;;;17.23;12.33;;;2.50;99.90;;;;;;5089307;28;20181;-59
2020/12/28 23:27:50;;;;;;;18.33;13.83;;;2.50;99.90;;;;;;5087768;28;20263;-61
2020/12/28 23:30:20;;;;;;;16.37;11.33;;;2.50;99.90;;;;;;5086715;28;20193;-61
2020/12/28 23:32:46;;;;;;;11.43;8.20;;;2.50;99.90;;;;;;5075751;28;20212;-60
2020/12/28 23:35:13;;;;;;;18.27;14.17;;;2.60;99.90;;;;;;5079884;28;20181;-61
2020/12/28 23:37:38;;;;;;;21.83;14.80;;;2.60;99.90;;;;;;5084117;28;20216;-62
2020/12/28 23:40:04;;;;;;;20.50;14.33;;;2.60;99.90;;;;;;5084764;28;20521;-70
2020/12/28 23:42:34;;;;;;;21.17;13.73;;;2.60;99.90;;;;;;5092059;28;20176;-69
2020/12/28 23:45:00;;;;;;;16.00;12.50;;;2.70;99.90;;;;;;5085355;28;20189;-70
2020/12/28 23:47:26;;;;;;;18.27;13.33;;;2.70;99.90;;;;;;5092792;28;20311;-71
2020/12/28 23:49:51;;;;;;;20.93;14.97;;;2.70;99.90;;;;;;5081315;28;20664;-74
2020/12/28 23:52:17;;;;;;;21.50;14.97;;;2.70;99.90;;;;;;5091587;28;20180;-71
2020/12/28 23:54:43;;;;;;;18.67;14.30;;;2.70;99.90;;;;;;5095216;22;20304;-69
2020/12/28 23:57:08;;;;;;;21.20;15.60;;;2.80;99.90;;;;;;5071986;28;20201;-70
2020/12/28 23:59:34;;;;;;;21.13;14.93;;;2.80;99.90;;;;;;5072303;28;20197;-70
